createdAt,value
2018-06-13T00:00:02.430Z,98795.31
2018-06-13T00:02:31.053Z,98788.02
2018-06-13T00:04:59.587Z,98790.52
2018-06-13T00:07:27.932Z,98796.19
2018-06-13T00:09:56.533Z,98793.35
2018-06-13T00:12:25.135Z,98789.20
2018-06-13T00:14:53.583Z,98790.75
2018-06-13T00:17:21.999Z,98779.89
2018-06-13T00:19:50.597Z,98786.45
2018-06-13T00:22:18.813Z,98787.14
2018-06-13T00:24:48.024Z,98788.91
2018-06-13T00:27:16.291Z,98786.19
2018-06-13T00:29:44.665Z,98795.66
2018-06-13T00:32:13.234Z,98786.77
2018-06-13T00:34:41.630Z,98787.80
2018-06-13T00:37:10.173Z,98789.33
2018-06-13T00:39:38.847Z,98785.94
2018-06-13T00:42:07.381Z,98791.56
2018-06-13T00:44:35.774Z,98790.25
2018-06-13T00:47:04.493Z,98790.33
2018-06-13T00:49:33.030Z,98789.96
2018-06-13T00:52:01.401Z,98783.97
2018-06-13T00:54:29.897Z,98786.63
2018-06-13T00:56:58.501Z,98792.30
2018-06-13T00:59:26.854Z,98797.30
2018-06-13T01:01:55.282Z,98792.63
2018-06-13T01:04:23.844Z,98791.31
2018-06-13T01:06:52.245Z,98787.82
2018-06-13T01:09:20.722Z,98791.30
2018-06-13T01:11:49.162Z,98794.61
2018-06-13T01:14:17.554Z,98782.08
2018-06-13T01:16:46.079Z,98785.44
2018-06-13T01:19:14.604Z,98780.10
2018-06-13T01:21:42.977Z,98779.98
2018-06-13T01:24:11.562Z,98779.33
2018-06-13T01:26:39.855Z,98779.99
2018-06-13T01:29:08.229Z,98784.84
2018-06-13T01:31:36.818Z,98779.48
2018-06-13T01:34:05.224Z,98781.67
2018-06-13T01:36:34.494Z,98774.10
2018-06-13T01:39:03.187Z,98775.90
2018-06-13T01:41:31.713Z,98773.87
2018-06-13T01:44:00.219Z,98770.42
2018-06-13T01:46:28.620Z,98772.95
2018-06-13T01:48:57.325Z,98774.42
2018-06-13T01:51:25.830Z,98778.59
2018-06-13T01:53:54.248Z,98773.30
2018-06-13T01:56:22.554Z,98763.56
2018-06-13T01:58:51.154Z,98771.21
2018-06-13T02:01:19.601Z,98773.05
2018-06-13T02:03:47.988Z,98776.55
2018-06-13T02:06:16.610Z,98776.44
2018-06-13T02:08:44.910Z,98771.09
2018-06-13T02:11:13.537Z,98768.77
2018-06-13T02:13:42.016Z,98766.92
2018-06-13T02:16:10.576Z,98764.46
2018-06-13T02:18:39.090Z,98766.77
2018-06-13T02:21:07.605Z,98767.30
2018-06-13T02:23:35.984Z,98768.42
2018-06-13T02:26:04.525Z,98761.95
2018-06-13T02:28:32.971Z,98770.82
2018-06-13T02:31:01.490Z,98768.98
2018-06-13T02:33:30.105Z,98765.45
2018-06-13T02:35:58.597Z,98767.91
2018-06-13T02:38:26.991Z,98769.27
2018-06-13T02:40:55.517Z,98758.56
2018-06-13T02:43:24.002Z,98760.91
2018-06-13T02:45:52.485Z,98768.42
2018-06-13T02:48:21.868Z,98764.44
2018-06-13T02:50:50.527Z,98766.28
2018-06-13T02:53:19.075Z,98760.57
2018-06-13T02:55:47.534Z,98751.71
2018-06-13T02:58:16.121Z,98747.17
2018-06-13T03:00:45.201Z,98754.55
2018-06-13T03:03:13.750Z,98749.38
2018-06-13T03:05:42.120Z,98753.06
2018-06-13T03:08:10.361Z,98745.65
2018-06-13T03:10:38.729Z,98746.17
2018-06-13T03:13:07.387Z,98745.83
2018-06-13T03:15:35.793Z,98747.83
2018-06-13T03:18:04.178Z,98741.50
2018-06-13T03:20:32.694Z,98741.78
2018-06-13T03:23:01.345Z,98736.63
2018-06-13T03:25:29.857Z,98737.50
2018-06-13T03:27:58.492Z,98740.17
2018-06-13T03:30:27.058Z,98744.86
2018-06-13T03:32:56.369Z,98746.22
2018-06-13T03:35:24.907Z,98739.51
2018-06-13T03:37:53.387Z,98741.34
2018-06-13T03:40:21.866Z,98743.36
2018-06-13T03:42:50.506Z,98742.02
2018-06-13T03:45:18.896Z,98739.00
2018-06-13T03:47:47.287Z,98743.36
2018-06-13T03:50:15.661Z,98740.68
2018-06-13T03:52:43.985Z,98736.16
2018-06-13T03:55:12.629Z,98739.67
2018-06-13T03:57:41.219Z,98739.54
2018-06-13T04:00:09.848Z,98741.88
2018-06-13T04:02:38.499Z,98749.19
2018-06-13T04:05:07.082Z,98751.02
2018-06-13T04:07:35.509Z,98754.52
2018-06-13T04:10:04.034Z,98749.52
2018-06-13T04:12:32.636Z,98744.03
2018-06-13T04:15:01.755Z,98737.34
2018-06-13T04:17:30.091Z,98738.52
2018-06-13T04:19:58.685Z,98737.02
2018-06-13T04:22:27.306Z,98739.86
2018-06-13T04:24:55.683Z,98736.02
2018-06-13T04:27:24.242Z,98739.36
2018-06-13T04:29:52.738Z,98742.70
2018-06-13T04:32:21.096Z,98739.22
2018-06-13T04:34:49.662Z,98744.84
2018-06-13T04:37:18.191Z,98747.17
2018-06-13T04:39:46.681Z,98741.64
2018-06-13T04:42:15.154Z,98737.78
2018-06-13T04:44:43.744Z,98741.42
2018-06-13T04:47:12.046Z,98741.73
2018-06-13T04:49:40.621Z,98737.53
2018-06-13T04:52:09.041Z,98741.90
2018-06-13T04:54:37.350Z,98742.09
2018-06-13T04:57:05.904Z,98742.43
2018-06-13T04:59:34.479Z,98745.77
2018-06-13T05:02:02.901Z,98746.03
2018-06-13T05:04:31.303Z,98744.98
2018-06-13T05:06:59.731Z,98746.22
2018-06-13T05:09:28.477Z,98745.13
2018-06-13T05:11:57.101Z,98752.61
2018-06-13T05:14:25.573Z,98745.60
2018-06-13T05:16:53.929Z,98747.84
2018-06-13T05:19:22.546Z,98741.89
2018-06-13T05:21:51.038Z,98751.98
2018-06-13T05:24:19.497Z,98748.14
2018-06-13T05:26:48.116Z,98747.03
2018-06-13T05:29:16.622Z,98747.40
2018-06-13T05:31:44.936Z,98737.25
2018-06-13T05:34:16.341Z,98740.92
2018-06-13T05:36:44.852Z,98741.33
2018-06-13T05:39:13.501Z,98741.80
2018-06-13T05:41:42.162Z,98738.03
2018-06-13T05:44:10.678Z,98734.13
2018-06-13T05:46:39.110Z,98730.23
2018-06-13T05:49:07.627Z,98734.02
2018-06-13T05:51:36.209Z,98733.73
2018-06-13T05:54:04.634Z,98728.06
2018-06-13T05:56:33.176Z,98725.19
2018-06-13T05:59:01.897Z,98735.13
2018-06-13T06:01:31.326Z,98726.28
2018-06-13T06:03:59.636Z,98731.42
2018-06-13T06:06:28.115Z,98732.50
2018-06-13T06:08:56.796Z,98727.67
2018-06-13T06:11:25.283Z,98725.70
2018-06-13T06:13:53.835Z,98724.67
2018-06-13T06:16:23.066Z,98723.36
2018-06-13T06:18:51.749Z,98716.92
2018-06-13T06:21:27.427Z,98713.75
2018-06-13T06:23:55.667Z,98718.36
2018-06-13T06:26:24.266Z,98721.45
2018-06-13T06:28:52.674Z,98715.38
2018-06-13T06:31:21.101Z,98712.48
2018-06-13T06:33:49.691Z,98712.64
2018-06-13T06:36:18.161Z,98711.54
2018-06-13T06:38:46.653Z,98706.52
2018-06-13T06:41:15.312Z,98705.93
2018-06-13T06:43:43.720Z,98700.73
2018-06-13T06:46:12.097Z,98697.22
2018-06-13T06:48:40.805Z,98687.98
2018-06-13T06:51:09.267Z,98695.45
2018-06-13T06:53:37.848Z,98689.75
2018-06-13T06:56:06.425Z,98691.95
2018-06-13T06:58:34.825Z,98690.56
2018-06-13T07:01:03.454Z,98687.78
2018-06-13T07:03:31.754Z,98687.95
2018-06-13T07:06:00.250Z,98686.36
2018-06-13T07:08:28.735Z,98686.67
2018-06-13T07:10:57.212Z,98682.89
2018-06-13T07:13:25.677Z,98685.62
2018-06-13T07:15:54.186Z,98680.09
2018-06-13T07:18:22.758Z,98680.93
2018-06-13T07:20:51.322Z,98678.17
2018-06-13T07:23:19.865Z,98678.94
2018-06-13T07:25:48.458Z,98678.98
2018-06-13T07:28:16.986Z,98677.88
2018-06-13T07:30:45.490Z,98680.77
2018-06-13T07:33:13.982Z,98674.02
2018-06-13T07:35:42.318Z,98677.25
2018-06-13T07:38:10.782Z,98674.26
2018-06-13T07:40:39.189Z,98676.77
2018-06-13T07:43:07.367Z,98678.90
2018-06-13T07:45:35.702Z,98676.77
2018-06-13T07:48:04.266Z,98675.25
2018-06-13T07:50:32.872Z,98679.80
2018-06-13T07:53:01.511Z,98675.14
2018-06-13T07:55:29.990Z,98671.56
2018-06-13T07:57:58.492Z,98666.10
2018-06-13T08:00:26.854Z,98669.83
2018-06-13T08:02:55.640Z,98669.27
2018-06-13T08:05:24.270Z,98670.11
2018-06-13T08:07:52.932Z,98662.25
2018-06-13T08:10:21.514Z,98665.04
2018-06-13T08:12:50.057Z,98651.89
2018-06-13T08:15:18.556Z,98655.89
2018-06-13T08:17:47.120Z,98660.34
2018-06-13T08:20:15.638Z,98656.62
2018-06-13T08:22:44.099Z,98651.21
2018-06-13T08:25:15.550Z,98652.27
2018-06-13T08:27:49.869Z,98646.63
2018-06-13T08:30:18.381Z,98652.34
2018-06-13T08:32:46.933Z,98649.67
2018-06-13T08:35:15.457Z,98641.80
2018-06-13T08:37:43.957Z,98640.41
2018-06-13T08:40:12.721Z,98639.90
2018-06-13T08:42:41.269Z,98636.36
2018-06-13T08:45:09.706Z,98631.40
2018-06-13T08:47:38.280Z,98625.93
2018-06-13T08:50:06.722Z,98627.98
2018-06-13T08:52:35.201Z,98624.02
2018-06-13T08:55:03.790Z,98622.05
2018-06-13T08:57:38.825Z,98626.17
2018-06-13T09:00:07.257Z,98628.30
2018-06-13T09:02:35.893Z,98623.31
2018-06-13T09:05:04.568Z,98611.09
2018-06-13T09:07:33.731Z,98610.34
2018-06-13T09:10:02.159Z,98604.42
2018-06-13T09:12:30.541Z,98599.39
2018-06-13T09:14:59.225Z,98599.74
2018-06-13T09:17:27.552Z,98597.53
2018-06-13T09:19:55.970Z,98594.98
2018-06-13T09:22:24.470Z,98595.20
2018-06-13T09:24:53.127Z,98590.52
2018-06-13T09:27:21.506Z,98587.08
2018-06-13T09:29:49.902Z,98581.53
2018-06-13T09:32:18.523Z,98588.49
2018-06-13T09:34:47.178Z,98581.72
2018-06-13T09:37:15.661Z,98575.89
2018-06-13T09:39:44.365Z,98569.41
2018-06-13T09:42:12.909Z,98578.36
2018-06-13T09:44:41.565Z,98571.41
2018-06-13T09:47:15.130Z,98575.23
2018-06-13T09:49:38.477Z,98574.47
2018-06-13T09:52:07.009Z,98568.30
2018-06-13T09:54:35.443Z,98565.91
2018-06-13T09:57:04.009Z,98573.95
2018-06-13T09:59:35.260Z,98565.13
2018-06-13T10:02:09.313Z,98554.77
2018-06-13T10:04:37.683Z,98559.66
2018-06-13T10:07:06.228Z,98557.23
2018-06-13T10:09:34.737Z,98555.28
2018-06-13T10:12:03.301Z,98557.98
2018-06-13T10:14:31.882Z,98553.47
2018-06-13T10:17:00.978Z,98547.10
2018-06-13T10:19:29.501Z,98533.20
2018-06-13T10:21:57.848Z,98530.42
2018-06-13T10:24:26.578Z,98526.22
2018-06-13T10:26:55.240Z,98522.53
2018-06-13T10:29:23.897Z,98523.04
2018-06-13T10:31:52.286Z,98513.48
2018-06-13T10:34:20.871Z,98515.90
2018-06-13T10:36:49.290Z,98509.77
2018-06-13T10:39:17.767Z,98505.49
2018-06-13T10:41:46.255Z,98494.66
2018-06-13T10:44:14.482Z,98504.62
2018-06-13T10:46:43.173Z,98496.61
2018-06-13T10:49:11.692Z,98494.01
2018-06-13T10:51:40.170Z,98485.47
2018-06-13T10:54:08.709Z,98491.86
2018-06-13T10:56:37.258Z,98488.70
2018-06-13T10:59:05.598Z,98472.48
2018-06-13T11:01:34.264Z,98478.95
2018-06-13T11:04:02.751Z,98472.15
2018-06-13T11:06:32.499Z,98468.66
2018-06-13T11:09:00.933Z,98465.12
2018-06-13T11:11:29.290Z,98457.92
2018-06-13T11:13:57.713Z,98462.92
2018-06-13T11:16:26.272Z,98460.80
2018-06-13T11:18:54.930Z,98444.44
2018-06-13T11:21:27.132Z,98439.80
2018-06-13T11:23:57.851Z,98434.55
2018-06-13T11:26:26.358Z,98427.11
2018-06-13T11:28:54.922Z,98439.98
2018-06-13T11:31:23.320Z,98434.73
2018-06-13T11:33:57.258Z,98429.05
2018-06-13T11:36:25.702Z,98423.34
2018-06-13T11:38:54.297Z,98421.39
2018-06-13T11:41:22.779Z,98425.22
2018-06-13T11:43:51.530Z,98422.25
2018-06-13T11:46:19.954Z,98417.30
2018-06-13T11:48:48.554Z,98416.31
2018-06-13T11:51:16.823Z,98413.41
2018-06-13T11:53:45.409Z,98417.21
2018-06-13T11:56:14.013Z,98421.03
2018-06-13T11:58:42.529Z,98423.86
2018-06-13T12:01:11.017Z,98423.80
2018-06-13T12:03:39.514Z,98412.98
2018-06-13T12:06:08.012Z,98415.17
2018-06-13T12:08:36.368Z,98409.52
2018-06-13T12:11:05.066Z,98414.34
2018-06-13T12:13:34.079Z,98420.48
2018-06-13T12:16:02.594Z,98421.22
2018-06-13T12:18:31.225Z,98412.92
2018-06-13T12:20:59.558Z,98402.83
2018-06-13T12:23:27.887Z,98404.77
2018-06-13T12:25:56.265Z,98395.41
2018-06-13T12:28:24.746Z,98383.50
2018-06-13T12:30:53.208Z,98382.36
2018-06-13T12:33:21.631Z,98380.70
2018-06-13T12:35:50.242Z,98378.20
2018-06-13T12:38:18.662Z,98378.92
2018-06-13T12:40:47.271Z,98380.12
2018-06-13T12:43:15.923Z,98368.96
2018-06-13T12:45:44.443Z,98379.67
2018-06-13T12:48:12.966Z,98381.83
2018-06-13T12:50:41.386Z,98367.26
2018-06-13T12:53:09.979Z,98362.95
2018-06-13T12:55:38.338Z,98359.27
2018-06-13T12:58:06.817Z,98359.59
2018-06-13T13:00:35.245Z,98352.50
2018-06-13T13:03:03.591Z,98356.58
2018-06-13T13:05:32.086Z,98355.79
2018-06-13T13:08:00.341Z,98350.91
2018-06-13T13:10:29.632Z,98347.95
2018-06-13T13:12:58.032Z,98341.61
2018-06-13T13:15:26.453Z,98341.06
2018-06-13T13:17:54.885Z,98338.48
2018-06-13T13:20:23.469Z,98340.05
2018-06-13T13:22:51.964Z,98329.23
2018-06-13T13:25:20.380Z,98324.28
2018-06-13T13:27:48.918Z,98333.89
2018-06-13T13:30:17.674Z,98336.75
2018-06-13T13:32:45.996Z,98336.14
2018-06-13T13:35:14.554Z,98343.92
2018-06-13T13:37:43.038Z,98343.73
2018-06-13T13:40:11.509Z,98342.67
2018-06-13T13:42:39.907Z,98353.67
2018-06-13T13:45:08.385Z,98354.20
2018-06-13T13:47:36.700Z,98364.88
2018-06-13T13:50:05.486Z,98361.59
2018-06-13T13:52:33.933Z,98358.39
2018-06-13T13:55:02.675Z,98348.88
2018-06-13T13:57:31.100Z,98355.09
2018-06-13T13:59:59.814Z,98352.21
2018-06-13T14:02:28.288Z,98352.28
2018-06-13T14:04:56.862Z,98350.09
2018-06-13T14:07:25.539Z,98348.41
2018-06-13T14:09:53.918Z,98344.81
2018-06-13T14:12:22.273Z,98334.75
2018-06-13T14:14:50.772Z,98336.53
2018-06-13T14:17:19.161Z,98331.78
2018-06-13T14:19:47.440Z,98332.67
2018-06-13T14:22:15.818Z,98333.59
2018-06-13T14:24:44.311Z,98332.89
2018-06-13T14:27:12.800Z,98326.47
2018-06-13T14:29:41.301Z,98323.80
2018-06-13T14:32:09.538Z,98318.06
2018-06-13T14:34:38.022Z,98321.67
2018-06-13T14:37:06.554Z,98325.50
2018-06-13T14:39:34.878Z,98312.87
2018-06-13T14:42:03.190Z,98322.49
2018-06-13T14:44:31.749Z,98328.91
2018-06-13T14:47:00.118Z,98326.66
2018-06-13T14:49:28.594Z,98327.48
2018-06-13T14:51:57.049Z,98323.20
2018-06-13T14:54:25.466Z,98321.08
2018-06-13T14:56:53.937Z,98320.64
2018-06-13T14:59:23.192Z,98317.01
2018-06-13T15:01:51.560Z,98322.89
2018-06-13T15:04:25.449Z,98319.29
2018-06-13T15:06:53.898Z,98321.16
2018-06-13T15:09:22.289Z,98316.47
2018-06-13T15:11:50.557Z,98327.33
2018-06-13T15:14:19.178Z,98327.48
2018-06-13T15:16:47.412Z,98324.00
2018-06-13T15:19:16.031Z,98318.78
2018-06-13T15:21:44.307Z,98313.80
2018-06-13T15:24:12.685Z,98304.67
2018-06-13T15:26:41.272Z,98296.42
2018-06-13T15:29:09.666Z,98298.55
2018-06-13T15:31:38.125Z,98304.99
2018-06-13T15:34:06.689Z,98300.73
2018-06-13T15:36:35.117Z,98299.25
2018-06-13T15:39:05.851Z,98283.31
2018-06-13T15:41:34.902Z,98283.63
2018-06-13T15:44:03.416Z,98283.51
2018-06-13T15:46:32.185Z,98280.67
2018-06-13T15:49:00.677Z,98258.48
2018-06-13T15:51:29.135Z,98271.64
2018-06-13T15:53:57.765Z,98264.34
2018-06-13T15:56:26.130Z,98259.20
2018-06-13T15:58:54.506Z,98254.95
2018-06-13T16:01:22.941Z,98249.59
2018-06-13T16:03:51.391Z,98242.42
2018-06-13T16:06:19.950Z,98239.58
2018-06-13T16:08:48.501Z,98234.32
2018-06-13T16:11:16.878Z,98236.70
2018-06-13T16:13:45.368Z,98230.64
2018-06-13T16:16:13.838Z,98231.06
2018-06-13T16:18:42.324Z,98243.14
2018-06-13T16:21:10.962Z,98241.20
2018-06-13T16:23:39.545Z,98241.82
2018-06-13T16:26:07.900Z,98241.17
2018-06-13T16:28:36.569Z,98240.25
2018-06-13T16:31:05.051Z,98246.70
2018-06-13T16:33:33.344Z,98248.95
2018-06-13T16:36:01.904Z,98257.97
2018-06-13T16:38:30.414Z,98254.69
2018-06-13T16:40:58.892Z,98258.88
2018-06-13T16:43:27.449Z,98258.02
2018-06-13T16:45:55.826Z,98264.73
2018-06-13T16:48:24.311Z,98264.42
2018-06-13T16:51:03.695Z,98272.09
2018-06-13T16:53:52.814Z,98276.98
2018-06-13T16:56:21.306Z,98277.97
2018-06-13T16:58:50.442Z,98276.95
2018-06-13T17:01:18.785Z,98288.97
2018-06-13T17:03:47.337Z,98287.50
2018-06-13T17:06:15.706Z,98296.00
2018-06-13T17:08:44.114Z,98296.52
2018-06-13T17:11:13.722Z,98301.05
2018-06-13T17:13:42.367Z,98299.59
2018-06-13T17:16:10.824Z,98299.99
2018-06-13T17:18:39.091Z,98313.67
2018-06-13T17:21:07.732Z,98323.48
2018-06-13T17:23:36.642Z,98334.54
2018-06-13T17:26:06.142Z,98338.00
2018-06-13T17:28:35.578Z,98340.05
2018-06-13T17:31:04.198Z,98339.55
2018-06-13T17:33:32.865Z,98346.33
2018-06-13T17:36:01.389Z,98357.20
2018-06-13T17:38:29.909Z,98367.80
2018-06-13T17:40:58.302Z,98370.89
2018-06-13T17:43:26.342Z,98376.22
2018-06-13T17:45:54.729Z,98370.81
2018-06-13T17:48:23.126Z,98365.67
2018-06-13T17:50:51.868Z,98364.31
2018-06-13T17:53:20.378Z,98368.81
2018-06-13T17:55:48.753Z,98360.34
2018-06-13T17:58:17.128Z,98364.24
2018-06-13T18:00:46.432Z,98367.27
2018-06-13T18:03:14.842Z,98372.52
2018-06-13T18:05:43.165Z,98365.52
2018-06-13T18:08:11.664Z,98372.52
2018-06-13T18:10:40.146Z,98362.73
2018-06-13T18:13:09.414Z,98364.59
2018-06-13T18:15:37.826Z,98369.29
2018-06-13T18:18:06.513Z,98369.73
2018-06-13T18:20:35.920Z,98371.88
2018-06-13T18:23:04.496Z,98377.91
2018-06-13T18:25:32.986Z,98383.45
2018-06-13T18:28:01.467Z,98391.12
2018-06-13T18:30:30.045Z,98387.31
2018-06-13T18:32:58.686Z,98399.80
2018-06-13T18:35:27.043Z,98403.05
2018-06-13T18:37:55.725Z,98401.78
2018-06-13T18:40:24.306Z,98407.98
2018-06-13T18:42:52.763Z,98402.23
2018-06-13T18:45:21.459Z,98410.34
2018-06-13T18:47:49.557Z,98412.72
2018-06-13T18:50:18.589Z,98417.95
2018-06-13T18:52:47.799Z,98421.69
2018-06-13T18:55:16.158Z,98427.60
2018-06-13T18:57:44.738Z,98429.77
2018-06-13T19:00:14.110Z,98431.59
2018-06-13T19:02:42.650Z,98434.06
2018-06-13T19:05:11.249Z,98440.37
2018-06-13T19:07:39.501Z,98434.07
2018-06-13T19:10:07.999Z,98431.97
2018-06-13T19:12:36.461Z,98435.00
2018-06-13T19:15:05.927Z,98439.48
2018-06-13T19:17:34.378Z,98440.94
2018-06-13T19:20:02.940Z,98436.94
2018-06-13T19:22:31.539Z,98438.93
2018-06-13T19:24:59.933Z,98439.63
2018-06-13T19:27:28.398Z,98448.56
2018-06-13T19:29:56.814Z,98440.48
2018-06-13T19:32:25.195Z,98447.64
2018-06-13T19:34:53.513Z,98444.84
2018-06-13T19:37:21.926Z,98445.30
2018-06-13T19:39:50.503Z,98456.39
2018-06-13T19:42:18.954Z,98468.12
2018-06-13T19:44:47.395Z,98466.97
2018-06-13T19:47:21.151Z,98478.67
2018-06-13T19:49:49.674Z,98481.45
2018-06-13T19:52:18.405Z,98491.77
2018-06-13T19:54:52.118Z,98479.80
2018-06-13T19:57:20.525Z,98480.98
2018-06-13T19:59:48.909Z,98485.66
2018-06-13T20:02:17.044Z,98484.08
2018-06-13T20:04:50.803Z,98482.61
2018-06-13T20:07:19.338Z,98478.45
2018-06-13T20:09:47.936Z,98473.47
2018-06-13T20:13:57.746Z,98468.00
2018-06-13T20:16:43.361Z,98468.61
2018-06-13T20:19:17.086Z,98463.45
2018-06-13T20:21:45.340Z,98471.20
2018-06-13T20:24:13.627Z,98464.07
2018-06-13T20:26:47.302Z,98461.87
2018-06-13T20:29:21.038Z,98464.80
2018-06-13T20:31:49.645Z,98463.52
2018-06-13T20:34:18.186Z,98464.05
2018-06-13T20:36:46.561Z,98465.50
2018-06-13T20:39:15.090Z,98459.52
2018-06-13T20:41:43.441Z,98457.28
2018-06-13T20:44:12.049Z,98464.64
2018-06-13T20:46:40.546Z,98470.42
2018-06-13T20:49:08.936Z,98480.04
2018-06-13T20:51:40.444Z,98480.27
2018-06-13T20:54:08.788Z,98492.91
2018-06-13T20:56:37.350Z,98501.13
2018-06-13T20:59:05.884Z,98516.23
2018-06-13T21:01:34.262Z,98525.94
2018-06-13T21:04:02.765Z,98532.79
2018-06-13T21:06:31.175Z,98525.34
2018-06-13T21:08:59.402Z,98530.06
2018-06-13T21:11:27.945Z,98539.39
2018-06-13T21:13:56.595Z,98537.19
2018-06-13T21:16:24.931Z,98535.73
2018-06-13T21:18:53.454Z,98533.48
2018-06-13T21:21:21.810Z,98529.33
2018-06-13T21:23:50.400Z,98517.14
2018-06-13T21:26:18.969Z,98523.66
2018-06-13T21:28:47.349Z,98522.04
2018-06-13T21:31:15.874Z,98524.52
2018-06-13T21:33:44.314Z,98530.11
2018-06-13T21:36:13.677Z,98520.86
2018-06-13T21:38:42.098Z,98524.09
2018-06-13T21:41:10.501Z,98526.27
2018-06-13T21:43:39.121Z,98521.23
2018-06-13T21:46:07.464Z,98514.44
2018-06-13T21:48:35.851Z,98508.42
2018-06-13T21:51:08.479Z,98500.14
2018-06-13T21:53:37.006Z,98494.02
2018-06-13T21:56:05.504Z,98495.15
2018-06-13T21:58:33.882Z,98486.27
2018-06-13T22:01:02.453Z,98481.78
2018-06-13T22:03:31.066Z,98478.08
2018-06-13T22:05:59.298Z,98476.50
2018-06-13T22:08:27.766Z,98480.20
2018-06-13T22:10:56.067Z,98475.55
2018-06-13T22:13:24.529Z,98471.72
2018-06-13T22:15:52.809Z,98478.52
2018-06-13T22:18:21.221Z,98483.63
2018-06-13T22:20:49.661Z,98477.60
2018-06-13T22:23:18.151Z,98483.84
2018-06-13T22:25:46.758Z,98477.11
2018-06-13T22:28:15.007Z,98468.42
2018-06-13T22:30:43.629Z,98459.42
2018-06-13T22:33:12.021Z,98452.36
2018-06-13T22:35:40.345Z,98456.46
2018-06-13T22:38:08.667Z,98458.67
2018-06-13T22:40:37.100Z,98464.39
2018-06-13T22:43:05.477Z,98462.92
2018-06-13T22:45:40.497Z,98455.45
2018-06-13T22:48:08.993Z,98458.16
2018-06-13T22:50:37.279Z,98452.03
2018-06-13T22:53:06.717Z,98461.75
2018-06-13T22:55:35.266Z,98465.05
2018-06-13T22:58:03.726Z,98465.86
2018-06-13T23:00:38.501Z,98462.86
2018-06-13T23:03:06.737Z,98466.84
2018-06-13T23:05:35.131Z,98463.17
2018-06-13T23:08:03.454Z,98464.27
2018-06-13T23:10:31.785Z,98470.16
2018-06-13T23:13:00.159Z,98467.01
2018-06-13T23:15:28.442Z,98470.91
2018-06-13T23:17:57.026Z,98462.36
2018-06-13T23:20:25.536Z,98464.42
2018-06-13T23:22:54.055Z,98466.77
2018-06-13T23:25:22.526Z,98470.92
2018-06-13T23:27:51.014Z,98465.12
2018-06-13T23:30:20.279Z,98470.50
2018-06-13T23:32:48.824Z,98476.31
2018-06-13T23:35:17.254Z,98482.98
2018-06-13T23:37:45.629Z,98482.77
2018-06-13T23:40:14.089Z,98487.69
2018-06-13T23:42:42.707Z,98486.71
2018-06-13T23:45:10.983Z,98486.89
2018-06-13T23:47:39.214Z,98487.22
2018-06-13T23:50:07.570Z,98476.89
2018-06-13T23:52:36.142Z,98481.77
2018-06-13T23:55:04.650Z,98485.30
2018-06-13T23:57:33.024Z,98482.16
